sensor_id;sensor_type;location;lat;lon;timestamp;pressure;altitude;pressure_sealevel;temperature;humidity
38786;BME280;24535;45.508;12.252;2024-01-16T00:00:25;100396.63;;;10.02;51.12
38786;BME280;24535;45.508;12.252;2024-01-16T00:03:05;100395.03;;;10.00;51.08
38786;BME280;24535;45.508;12.252;2024-01-16T00:05:41;100405.47;;;10.01;51.04
38786;BME280;24535;45.508;12.252;2024-01-16T00:08:15;100411.47;;;10.03;50.79
38786;BME280;24535;45.508;12.252;2024-01-16T00:10:42;100416.94;;;10.00;50.71
38786;BME280;24535;45.508;12.252;2024-01-16T00:21:44;100424.09;;;9.98;51.04
38786;BME280;24535;45.508;12.252;2024-01-16T00:24:22;100430.22;;;9.99;50.87
38786;BME280;24535;45.508;12.252;2024-01-16T00:26:47;100433.88;;;9.96;50.78
38786;BME280;24535;45.508;12.252;2024-01-16T00:29:16;100446.75;;;10.01;51.19
38786;BME280;24535;45.508;12.252;2024-01-16T00:31:51;100445.28;;;9.97;50.66
38786;BME280;24535;45.508;12.252;2024-01-16T00:34:16;100453.78;;;10.00;50.97
38786;BME280;24535;45.508;12.252;2024-01-16T00:36:51;100449.47;;;9.99;50.97
38786;BME280;24535;45.508;12.252;2024-01-16T00:39:16;100456.53;;;9.99;50.92
38786;BME280;24535;45.508;12.252;2024-01-16T00:48:04;100461.06;;;9.97;50.68
38786;BME280;24535;45.508;12.252;2024-01-16T00:51:08;100466.31;;;9.97;50.74
38786;BME280;24535;45.508;12.252;2024-01-16T01:31:30;100511.97;;;9.83;50.24
38786;BME280;24535;45.508;12.252;2024-01-16T02:02:22;100566.56;;;9.79;50.20
38786;BME280;24535;45.508;12.252;2024-01-16T02:04:51;100558.81;;;9.78;50.26
38786;BME280;24535;45.508;12.252;2024-01-16T02:13:21;100569.22;;;9.79;50.21
38786;BME280;24535;45.508;12.252;2024-01-16T02:19:07;100576.25;;;9.79;49.81
38786;BME280;24535;45.508;12.252;2024-01-16T02:24:10;100572.91;;;9.77;50.23
38786;BME280;24535;45.508;12.252;2024-01-16T02:30:14;100589.53;;;9.77;50.11
38786;BME280;24535;45.508;12.252;2024-01-16T02:35:41;100589.91;;;9.71;49.86
38786;BME280;24535;45.508;12.252;2024-01-16T02:38:06;100591.81;;;9.69;50.09
38786;BME280;24535;45.508;12.252;2024-01-16T02:45:33;100606.75;;;9.69;50.05
38786;BME280;24535;45.508;12.252;2024-01-16T02:48:05;100617.06;;;9.72;50.02
38786;BME280;24535;45.508;12.252;2024-01-16T02:50:31;100619.78;;;9.70;49.95
38786;BME280;24535;45.508;12.252;2024-01-16T02:52:58;100618.13;;;9.69;49.63
38786;BME280;24535;45.508;12.252;2024-01-16T02:55:27;100612.22;;;9.65;50.07
38786;BME280;24535;45.508;12.252;2024-01-16T02:57:55;100628.53;;;9.71;50.12
38786;BME280;24535;45.508;12.252;2024-01-16T03:09:01;100644.31;;;9.71;49.50
38786;BME280;24535;45.508;12.252;2024-01-16T03:11:36;100647.13;;;9.68;49.72
38786;BME280;24535;45.508;12.252;2024-01-16T03:16:37;100656.72;;;9.69;49.72
38786;BME280;24535;45.508;12.252;2024-01-16T03:42:09;100691.31;;;9.62;49.47
38786;BME280;24535;45.508;12.252;2024-01-16T04:00:32;100710.38;;;9.66;49.65
38786;BME280;24535;45.508;12.252;2024-01-16T04:02:58;100709.81;;;9.61;49.64
38786;BME280;24535;45.508;12.252;2024-01-16T04:05:33;100715.91;;;9.61;49.45
38786;BME280;24535;45.508;12.252;2024-01-16T04:07:59;100703.91;;;9.57;49.47
38786;BME280;24535;45.508;12.252;2024-01-16T04:10:48;100710.00;;;9.58;49.62
38786;BME280;24535;45.508;12.252;2024-01-16T04:13:26;100712.81;;;9.55;49.41
38786;BME280;24535;45.508;12.252;2024-01-16T04:15:52;100725.69;;;9.59;49.35
38786;BME280;24535;45.508;12.252;2024-01-16T04:18:26;100725.69;;;9.59;49.48
38786;BME280;24535;45.508;12.252;2024-01-16T04:24:27;100716.22;;;9.57;49.37
38786;BME280;24535;45.508;12.252;2024-01-16T04:27:17;100718.09;;;9.55;49.50
38786;BME280;24535;45.508;12.252;2024-01-16T04:33:29;100711.13;;;9.54;49.43
38786;BME280;24535;45.508;12.252;2024-01-16T04:36:18;100708.63;;;9.52;49.41
38786;BME280;24535;45.508;12.252;2024-01-16T04:39:06;100713.13;;;9.50;49.22
38786;BME280;24535;45.508;12.252;2024-01-16T04:41:32;100722.78;;;9.50;49.45
38786;BME280;24535;45.508;12.252;2024-01-16T04:43:57;100722.91;;;9.48;49.51
38786;BME280;24535;45.508;12.252;2024-01-16T04:46:36;100735.75;;;9.53;49.18
38786;BME280;24535;45.508;12.252;2024-01-16T04:49:01;100728.16;;;9.48;49.63
38786;BME280;24535;45.508;12.252;2024-01-16T04:55:29;100733.97;;;9.53;49.41
38786;BME280;24535;45.508;12.252;2024-01-16T04:58:15;100734.91;;;9.52;49.19
38786;BME280;24535;45.508;12.252;2024-01-16T05:00:47;100733.84;;;9.55;49.35
38786;BME280;24535;45.508;12.252;2024-01-16T05:03:13;100741.84;;;9.53;49.50
38786;BME280;24535;45.508;12.252;2024-01-16T05:05:57;100742.03;;;9.50;49.47
38786;BME280;24535;45.508;12.252;2024-01-16T05:08:44;100753.41;;;9.51;49.28
38786;BME280;24535;45.508;12.252;2024-01-16T05:11:34;100759.50;;;9.51;49.42
38786;BME280;24535;45.508;12.252;2024-01-16T05:14:03;100760.44;;;9.50;49.43
38786;BME280;24535;45.508;12.252;2024-01-16T05:16:49;100774.44;;;9.51;49.59
38786;BME280;24535;45.508;12.252;2024-01-16T05:19:16;100775.19;;;9.53;49.21
38786;BME280;24535;45.508;12.252;2024-01-16T05:21:42;100778.00;;;9.50;49.23
38786;BME280;24535;45.508;12.252;2024-01-16T05:24:23;100782.25;;;9.52;49.97
38786;BME280;24535;45.508;12.252;2024-01-16T05:27:35;100781.38;;;9.52;49.72
38786;BME280;24535;45.508;12.252;2024-01-16T05:30:06;100778.00;;;9.50;49.47
38786;BME280;24535;45.508;12.252;2024-01-16T05:32:42;100785.63;;;9.54;49.10
38786;BME280;24535;45.508;12.252;2024-01-16T05:35:32;100783.09;;;9.53;49.34
38786;BME280;24535;45.508;12.252;2024-01-16T05:38:01;100794.44;;;9.53;49.25
38786;BME280;24535;45.508;12.252;2024-01-16T05:43:16;100802.34;;;9.53;49.60
38786;BME280;24535;45.508;12.252;2024-01-16T05:49:31;100804.97;;;9.53;49.48
38786;BME280;24535;45.508;12.252;2024-01-16T05:52:02;100798.03;;;9.52;49.40
38786;BME280;24535;45.508;12.252;2024-01-16T05:54:31;100787.59;;;9.51;49.18
38786;BME280;24535;45.508;12.252;2024-01-16T05:57:04;100784.28;;;9.47;49.47
38786;BME280;24535;45.508;12.252;2024-01-16T05:59:33;100779.97;;;9.46;49.37
38786;BME280;24535;45.508;12.252;2024-01-16T06:02:00;100779.97;;;9.46;49.73
38786;BME280;24535;45.508;12.252;2024-01-16T06:04:31;100795.75;;;9.46;49.18
38786;BME280;24535;45.508;12.252;2024-01-16T06:10:07;100807.41;;;9.42;49.37
38786;BME280;24535;45.508;12.252;2024-01-16T06:12:39;100801.00;;;9.46;49.27
38786;BME280;24535;45.508;12.252;2024-01-16T06:15:11;100799.41;;;9.44;49.45
38786;BME280;24535;45.508;12.252;2024-01-16T06:18:06;100797.91;;;9.39;49.32
38786;BME280;24535;45.508;12.252;2024-01-16T06:20:57;100798.78;;;9.40;48.92
38786;BME280;24535;45.508;12.252;2024-01-16T06:23:36;100804.09;;;9.38;49.54
38786;BME280;24535;45.508;12.252;2024-01-16T06:26:13;100809.94;;;9.44;49.35
38786;BME280;24535;45.508;12.252;2024-01-16T06:28:42;100812.56;;;9.44;49.37
38786;BME280;24535;45.508;12.252;2024-01-16T06:34:40;100832.75;;;9.43;49.67
38786;BME280;24535;45.508;12.252;2024-01-16T06:37:05;100829.28;;;9.43;49.06
38786;BME280;24535;45.508;12.252;2024-01-16T06:39:43;100832.66;;;9.45;49.43
38786;BME280;24535;45.508;12.252;2024-01-16T06:45:43;100847.59;;;9.44;49.61
38786;BME280;24535;45.508;12.252;2024-01-16T06:50:47;100863.38;;;9.44;49.46
38786;BME280;24535;45.508;12.252;2024-01-16T06:53:12;100860.81;;;9.43;48.90
38786;BME280;24535;45.508;12.252;2024-01-16T06:55:38;100861.66;;;9.43;49.35
38786;BME280;24535;45.508;12.252;2024-01-16T06:58:03;100872.78;;;9.48;49.64
38786;BME280;24535;45.508;12.252;2024-01-16T07:00:41;100868.66;;;9.44;49.34
38786;BME280;24535;45.508;12.252;2024-01-16T07:06:10;100880.66;;;9.48;49.25
38786;BME280;24535;45.508;12.252;2024-01-16T07:08:35;100889.19;;;9.52;49.72
38786;BME280;24535;45.508;12.252;2024-01-16T07:11:20;100890.25;;;9.49;49.63
38786;BME280;24535;45.508;12.252;2024-01-16T07:13:51;100891.81;;;9.52;49.11
38786;BME280;24535;45.508;12.252;2024-01-16T07:16:25;100883.28;;;9.48;49.69
38786;BME280;24535;45.508;12.252;2024-01-16T07:18:54;100890.25;;;9.49;49.31
38786;BME280;24535;45.508;12.252;2024-01-16T07:21:23;100897.84;;;9.54;49.06
38786;BME280;24535;45.508;12.252;2024-01-16T07:32:39;100910.81;;;9.57;49.26
38786;BME280;24535;45.508;12.252;2024-01-16T07:39:03;100908.47;;;9.52;49.20
38786;BME280;24535;45.508;12.252;2024-01-16T07:44:06;100915.59;;;9.50;49.38
38786;BME280;24535;45.508;12.252;2024-01-16T07:46:31;100927.91;;;9.50;49.44
38786;BME280;24535;45.508;12.252;2024-01-16T07:54:37;100943.56;;;9.51;49.38
38786;BME280;24535;45.508;12.252;2024-01-16T08:02:13;100954.03;;;9.53;48.90
38786;BME280;24535;45.508;12.252;2024-01-16T08:13:48;100961.81;;;9.54;48.58
38786;BME280;24535;45.508;12.252;2024-01-16T08:16:31;100970.72;;;9.52;49.61
38786;BME280;24535;45.508;12.252;2024-01-16T08:19:13;100974.38;;;9.49;49.46
38786;BME280;24535;45.508;12.252;2024-01-16T08:24:48;100984.13;;;9.47;49.21
38786;BME280;24535;45.508;12.252;2024-01-16T08:27:22;100984.13;;;9.47;49.27
38786;BME280;24535;45.508;12.252;2024-01-16T08:30:08;100985.84;;;9.48;49.43
38786;BME280;24535;45.508;12.252;2024-01-16T08:32:34;100991.84;;;9.50;49.56
38786;BME280;24535;45.508;12.252;2024-01-16T08:45:23;101000.31;;;9.55;49.55
38786;BME280;24535;45.508;12.252;2024-01-16T08:48:03;101017.59;;;9.59;49.33
38786;BME280;24535;45.508;12.252;2024-01-16T08:50:44;101016.88;;;9.57;49.00
38786;BME280;24535;45.508;12.252;2024-01-16T08:53:47;101008.03;;;9.58;49.18
38786;BME280;24535;45.508;12.252;2024-01-16T08:56:13;101016.94;;;9.56;48.84
38786;BME280;24535;45.508;12.252;2024-01-16T09:11:46;101042.56;;;9.82;49.68
38786;BME280;24535;45.508;12.252;2024-01-16T09:20:03;101050.16;;;10.17;49.73
38786;BME280;24535;45.508;12.252;2024-01-16T09:38:23;101071.34;;;10.73;48.43
38786;BME280;24535;45.508;12.252;2024-01-16T09:50:07;101071.56;;;11.52;49.36
38786;BME280;24535;45.508;12.252;2024-01-16T11:03:09;101063.00;;;10.66;45.89
38786;BME280;24535;45.508;12.252;2024-01-16T11:31:57;101055.00;;;10.39;45.71
38786;BME280;24535;45.508;12.252;2024-01-16T11:37:10;101073.25;;;10.42;45.86
38786;BME280;24535;45.508;12.252;2024-01-16T11:39:36;101069.78;;;10.42;45.95
38786;BME280;24535;45.508;12.252;2024-01-16T11:42:02;101059.31;;;10.40;45.42
38786;BME280;24535;45.508;12.252;2024-01-16T11:44:41;101057.47;;;10.42;45.92
38786;BME280;24535;45.508;12.252;2024-01-16T11:47:21;101054.72;;;10.44;45.83
38786;BME280;24535;45.508;12.252;2024-01-16T11:49:48;101060.09;;;10.42;45.70
38786;BME280;24535;45.508;12.252;2024-01-16T11:52:14;101042.50;;;10.43;46.34
38786;BME280;24535;45.508;12.252;2024-01-16T11:54:42;101039.88;;;10.43;46.17
38786;BME280;24535;45.508;12.252;2024-01-16T11:57:50;101050.09;;;10.47;45.93
38786;BME280;24535;45.508;12.252;2024-01-16T12:00:25;101044.56;;;10.52;45.74
38786;BME280;24535;45.508;12.252;2024-01-16T12:03:13;101034.13;;;10.50;46.10
38786;BME280;24535;45.508;12.252;2024-01-16T12:05:44;101026.88;;;10.54;45.68
38786;BME280;24535;45.508;12.252;2024-01-16T12:08:26;101023.31;;;10.55;45.91
38786;BME280;24535;45.508;12.252;2024-01-16T12:11:26;101028.47;;;10.56;45.81
38786;BME280;24535;45.508;12.252;2024-01-16T12:14:09;101027.44;;;10.59;45.77
38786;BME280;24535;45.508;12.252;2024-01-16T12:16:34;101016.06;;;10.58;45.57
38786;BME280;24535;45.508;12.252;2024-01-16T12:19:13;101011.34;;;10.63;46.43
38786;BME280;24535;45.508;12.252;2024-01-16T12:21:45;101018.28;;;10.64;45.80
38786;BME280;24535;45.508;12.252;2024-01-16T12:24:15;101018.28;;;10.64;45.36
38786;BME280;24535;45.508;12.252;2024-01-16T12:26:50;101011.22;;;10.65;45.37
38786;BME280;24535;45.508;12.252;2024-01-16T12:29:26;101005.13;;;10.64;45.64
38786;BME280;24535;45.508;12.252;2024-01-16T12:32:13;101002.19;;;10.69;45.22
38786;BME280;24535;45.508;12.252;2024-01-16T12:34:45;101001.28;;;10.70;45.64
38786;BME280;24535;45.508;12.252;2024-01-16T12:37:11;100998.53;;;10.72;45.66
38786;BME280;24535;45.508;12.252;2024-01-16T12:39:41;100999.47;;;10.71;45.09
38786;BME280;24535;45.508;12.252;2024-01-16T12:42:16;101000.63;;;10.67;45.58
38786;BME280;24535;45.508;12.252;2024-01-16T12:44:41;100994.41;;;10.68;45.73
38786;BME280;24535;45.508;12.252;2024-01-16T12:47:07;101001.16;;;10.72;45.07
38786;BME280;24535;45.508;12.252;2024-01-16T12:49:33;100999.28;;;10.74;44.75
38786;BME280;24535;45.508;12.252;2024-01-16T12:52:21;100990.44;;;10.75;44.98
38786;BME280;24535;45.508;12.252;2024-01-16T12:55:05;100991.94;;;10.79;45.12
38786;BME280;24535;45.508;12.252;2024-01-16T13:03:07;100985.81;;;10.78;45.70
38786;BME280;24535;45.508;12.252;2024-01-16T13:05:34;100971.16;;;10.74;44.96
38786;BME280;24535;45.508;12.252;2024-01-16T14:10:31;100970.44;;;10.85;44.88
38786;BME280;24535;45.508;12.252;2024-01-16T14:12:56;100963.38;;;10.85;44.61
38786;BME280;24535;45.508;12.252;2024-01-16T14:15:34;100957.06;;;10.88;44.85
38786;BME280;24535;45.508;12.252;2024-01-16T14:20:35;100960.47;;;10.90;44.77
38786;BME280;24535;45.508;12.252;2024-01-16T14:23:00;100954.31;;;10.89;44.61
38786;BME280;24535;45.508;12.252;2024-01-16T14:25:28;100952.75;;;10.87;44.79
38786;BME280;24535;45.508;12.252;2024-01-16T14:28:15;100952.75;;;10.87;44.23
38786;BME280;24535;45.508;12.252;2024-01-16T14:30:40;100954.44;;;10.88;45.02
38786;BME280;24535;45.508;12.252;2024-01-16T14:33:06;100961.38;;;10.89;44.61
38786;BME280;24535;45.508;12.252;2024-01-16T14:35:33;100945.81;;;10.86;44.47
38786;BME280;24535;45.508;12.252;2024-01-16T14:38:08;100938.81;;;10.85;45.21
38786;BME280;24535;45.508;12.252;2024-01-16T14:40:42;100944.09;;;10.85;44.98
38786;BME280;24535;45.508;12.252;2024-01-16T14:43:08;100938.75;;;10.86;45.00
38786;BME280;24535;45.508;12.252;2024-01-16T14:45:37;100939.56;;;10.87;44.95
38786;BME280;24535;45.508;12.252;2024-01-16T15:32:28;100969.16;;;10.78;45.70
38786;BME280;24535;45.508;12.252;2024-01-16T16:17:07;100981.34;;;10.66;47.06
38786;BME280;24535;45.508;12.252;2024-01-16T16:19:45;100974.28;;;10.67;46.41
38786;BME280;24535;45.508;12.252;2024-01-16T16:22:15;100979.53;;;10.67;46.68
38786;BME280;24535;45.508;12.252;2024-01-16T16:28:16;100975.22;;;10.66;46.60
38786;BME280;24535;45.508;12.252;2024-01-16T16:30:57;100970.69;;;10.68;46.61
38786;BME280;24535;45.508;12.252;2024-01-16T16:33:31;100965.59;;;10.64;46.55
38786;BME280;24535;45.508;12.252;2024-01-16T16:36:02;100967.50;;;10.62;46.67
38786;BME280;24535;45.508;12.252;2024-01-16T16:38:29;100983.19;;;10.64;46.58
38786;BME280;24535;45.508;12.252;2024-01-16T16:40:55;100984.25;;;10.61;46.90
38786;BME280;24535;45.508;12.252;2024-01-16T16:46:42;100996.28;;;10.66;47.04
38786;BME280;24535;45.508;12.252;2024-01-16T16:49:08;100993.84;;;10.62;46.94
38786;BME280;24535;45.508;12.252;2024-01-16T16:51:34;101004.38;;;10.62;46.86
38786;BME280;24535;45.508;12.252;2024-01-16T17:02:44;101015.66;;;10.64;47.20
38786;BME280;24535;45.508;12.252;2024-01-16T17:05:25;101017.38;;;10.66;47.39
38786;BME280;24535;45.508;12.252;2024-01-16T17:07:54;101010.50;;;10.63;47.06
38786;BME280;24535;45.508;12.252;2024-01-16T17:13:28;101021.69;;;10.67;47.17
38786;BME280;24535;45.508;12.252;2024-01-16T17:16:00;101035.81;;;10.66;47.30
38786;BME280;24535;45.508;12.252;2024-01-16T17:18:31;101044.56;;;10.66;47.37
38786;BME280;24535;45.508;12.252;2024-01-16T17:21:06;101038.53;;;10.64;47.58
38786;BME280;24535;45.508;12.252;2024-01-16T17:23:35;101038.53;;;10.64;47.21
38786;BME280;24535;45.508;12.252;2024-01-16T17:26:04;101057.63;;;10.68;47.57
38786;BME280;24535;45.508;12.252;2024-01-16T17:28:30;101055.00;;;10.68;47.35
38786;BME280;24535;45.508;12.252;2024-01-16T17:31:10;101060.06;;;10.71;47.47
38786;BME280;24535;45.508;12.252;2024-01-16T17:33:42;101056.78;;;10.67;47.57
38786;BME280;24535;45.508;12.252;2024-01-16T17:36:11;101049.84;;;10.66;47.49
38786;BME280;24535;45.508;12.252;2024-01-16T17:38:41;101056.69;;;10.69;47.49
38786;BME280;24535;45.508;12.252;2024-01-16T17:41:26;101060.16;;;10.69;47.78
38786;BME280;24535;45.508;12.252;2024-01-16T17:43:54;101048.03;;;10.67;47.89
38786;BME280;24535;45.508;12.252;2024-01-16T17:46:23;101047.84;;;10.70;48.04
38786;BME280;24535;45.508;12.252;2024-01-16T17:48:49;101041.72;;;10.69;47.59
38786;BME280;24535;45.508;12.252;2024-01-16T17:51:15;101035.59;;;10.69;47.56
38786;BME280;24535;45.508;12.252;2024-01-16T17:53:40;101046.91;;;10.71;47.41
38786;BME280;24535;45.508;12.252;2024-01-16T17:56:47;101042.47;;;10.71;48.05
38786;BME280;24535;45.508;12.252;2024-01-16T18:01:56;101043.31;;;10.72;47.97
38786;BME280;24535;45.508;12.252;2024-01-16T18:04:37;101054.81;;;10.71;47.65
38786;BME280;24535;45.508;12.252;2024-01-16T18:07:11;101052.19;;;10.71;46.83
38786;BME280;24535;45.508;12.252;2024-01-16T18:15:02;101068.16;;;10.68;47.48
38786;BME280;24535;45.508;12.252;2024-01-16T18:17:35;101065.34;;;10.71;47.85
38786;BME280;24535;45.508;12.252;2024-01-16T18:20:00;101057.63;;;10.68;47.92
38786;BME280;24535;45.508;12.252;2024-01-16T18:22:37;101068.16;;;10.68;47.53
38786;BME280;24535;45.508;12.252;2024-01-16T18:25:04;101069.84;;;10.69;47.69
38786;BME280;24535;45.508;12.252;2024-01-16T18:27:35;101073.31;;;10.69;48.11
38786;BME280;24535;45.508;12.252;2024-01-16T18:42:54;101064.78;;;10.66;47.76
38786;BME280;24535;45.508;12.252;2024-01-16T18:45:20;101063.84;;;10.67;48.32
38786;BME280;24535;45.508;12.252;2024-01-16T18:47:55;101067.13;;;10.70;47.84
38786;BME280;24535;45.508;12.252;2024-01-16T18:50:24;101067.22;;;10.69;47.84
38786;BME280;24535;45.508;12.252;2024-01-16T18:52:53;101065.53;;;10.68;47.92
38786;BME280;24535;45.508;12.252;2024-01-16T18:55:22;101068.94;;;10.70;48.38
38786;BME280;24535;45.508;12.252;2024-01-16T18:57:48;101067.31;;;10.67;47.78
38786;BME280;24535;45.508;12.252;2024-01-16T19:00:17;101064.69;;;10.67;48.15
38786;BME280;24535;45.508;12.252;2024-01-16T19:02:47;101055.75;;;10.70;48.11
38786;BME280;24535;45.508;12.252;2024-01-16T19:05:27;101053.31;;;10.67;48.21
38786;BME280;24535;45.508;12.252;2024-01-16T19:08:57;101058.56;;;10.67;47.95
38786;BME280;24535;45.508;12.252;2024-01-16T19:11:32;101049.91;;;10.64;48.43
38786;BME280;24535;45.508;12.252;2024-01-16T19:19:09;101049.00;;;10.66;48.16
38786;BME280;24535;45.508;12.252;2024-01-16T19:22:08;101047.09;;;10.68;48.48
38786;BME280;24535;45.508;12.252;2024-01-16T19:24:52;101049.84;;;10.66;48.04
38786;BME280;24535;45.508;12.252;2024-01-16T20:06:56;101045.59;;;10.63;48.08
38786;BME280;24535;45.508;12.252;2024-01-16T20:59:39;101082.19;;;10.68;47.67
38786;BME280;24535;45.508;12.252;2024-01-16T21:02:05;101078.03;;;10.64;47.58
38786;BME280;24535;45.508;12.252;2024-01-16T21:04:41;101080.69;;;10.64;47.81
38786;BME280;24535;45.508;12.252;2024-01-16T21:07:12;101089.25;;;10.68;47.56
38786;BME280;24535;45.508;12.252;2024-01-16T21:16:05;101097.03;;;10.69;47.53
38786;BME280;24535;45.508;12.252;2024-01-16T21:18:34;101087.56;;;10.67;47.59
38786;BME280;24535;45.508;12.252;2024-01-16T21:20:59;101090.94;;;10.69;47.58
38786;BME280;24535;45.508;12.252;2024-01-16T21:23:25;101088.50;;;10.66;47.49
38786;BME280;24535;45.508;12.252;2024-01-16T21:25:54;101078.16;;;10.62;47.51
38786;BME280;24535;45.508;12.252;2024-01-16T21:28:23;101075.41;;;10.64;47.72
38786;BME280;24535;45.508;12.252;2024-01-16T21:30:58;101073.63;;;10.64;47.79
38786;BME280;24535;45.508;12.252;2024-01-16T21:33:24;101069.47;;;10.60;47.71
38786;BME280;24535;45.508;12.252;2024-01-16T21:35:55;101069.41;;;10.62;47.61
38786;BME280;24535;45.508;12.252;2024-01-16T21:38:27;101065.06;;;10.61;47.90
38786;BME280;24535;45.508;12.252;2024-01-16T21:41:10;101060.56;;;10.63;47.60
38786;BME280;24535;45.508;12.252;2024-01-16T21:43:46;101066.66;;;10.63;47.54
38786;BME280;24535;45.508;12.252;2024-01-16T21:46:31;101055.28;;;10.63;47.77
38786;BME280;24535;45.508;12.252;2024-01-16T21:48:57;101062.25;;;10.64;47.82
38786;BME280;24535;45.508;12.252;2024-01-16T21:51:38;101052.84;;;10.60;47.69
38786;BME280;24535;45.508;12.252;2024-01-16T21:54:20;101062.34;;;10.62;47.63
38786;BME280;24535;45.508;12.252;2024-01-16T21:59:53;101057.81;;;10.64;47.63
38786;BME280;24535;45.508;12.252;2024-01-16T22:10:52;101070.25;;;10.62;47.93
38786;BME280;24535;45.508;12.252;2024-01-16T22:13:18;101076.25;;;10.64;47.76
38786;BME280;24535;45.508;12.252;2024-01-16T22:15:48;101058.75;;;10.63;48.20
38786;BME280;24535;45.508;12.252;2024-01-16T22:33:18;101059.72;;;10.62;47.80
38786;BME280;24535;45.508;12.252;2024-01-16T22:41:45;101046.81;;;10.58;47.67
38786;BME280;24535;45.508;12.252;2024-01-16T22:44:32;101047.56;;;10.60;47.18
38786;BME280;24535;45.508;12.252;2024-01-16T22:52:17;101030.19;;;10.57;47.79
38786;BME280;24535;45.508;12.252;2024-01-16T22:54:49;101027.44;;;10.59;48.01
38786;BME280;24535;45.508;12.252;2024-01-16T22:57:14;101031.75;;;10.60;47.42
38786;BME280;24535;45.508;12.252;2024-01-16T22:59:42;101038.72;;;10.61;47.42
38786;BME280;24535;45.508;12.252;2024-01-16T23:02:23;101042.22;;;10.61;47.87
38786;BME280;24535;45.508;12.252;2024-01-16T23:04:50;101034.38;;;10.60;47.74
38786;BME280;24535;45.508;12.252;2024-01-16T23:07:16;101037.88;;;10.60;47.41
38786;BME280;24535;45.508;12.252;2024-01-16T23:09:42;101035.16;;;10.62;47.30
38786;BME280;24535;45.508;12.252;2024-01-16T23:12:17;101027.16;;;10.63;47.48
38786;BME280;24535;45.508;12.252;2024-01-16T23:14:43;101019.13;;;10.65;47.33
38786;BME280;24535;45.508;12.252;2024-01-16T23:17:27;101014.63;;;10.67;47.96
38786;BME280;24535;45.508;12.252;2024-01-16T23:22:54;101006.06;;;10.63;47.48
38786;BME280;24535;45.508;12.252;2024-01-16T23:25:43;101010.50;;;10.63;47.66
38786;BME280;24535;45.508;12.252;2024-01-16T23:28:24;101023.47;;;10.66;47.46
38786;BME280;24535;45.508;12.252;2024-01-16T23:30:56;101030.44;;;10.67;47.60
38786;BME280;24535;45.508;12.252;2024-01-16T23:56:49;100920.09;;;10.62;47.54
